Nearby METAR Reports

 

EGQL - Leuchars Raf, United Kingdom
Distance from station: SW 17km
Updated: 28/03/2020 21:50
Mostly cloudy
Mostly cloudy
 Wind from N
Wind: N 11 km/h
Temperature: 3°C
Wind Chill: 0°C
Dew Point: -3°C
Humidity: 65%
Barometer: 1047 hPa
Clouds: Mostly cloudy
Visibility: 10 km
Cloud details: Mostly cloudy 1372 m
2020/03/29 04:50 EGQL 290450Z 01006KT 9999 BKN045 03/M03 Q1047 BLU
EGPN - Dundee/Riverside, United Kingdom
Distance from station: WSW 20km
Updated: 28/03/2020 08:50
NOT Current
Light rain, Showers, Partly cloudy
Light rain, Showers, Partly cloudy
 Wind from NNE
Wind: NNE 22 km/h, Gust: 43 km/h
Temperature: 6°C
Wind Chill: 2°C
Dew Point: 0°C
Humidity: 66%
Barometer: 1042 hPa
Summary: Light rain, Showers
Clouds: Partly cloudy
Visibility: 10 km
Cloud details: Few Clouds 914 m
Partly cloudy 1280 m
2020/03/28 15:50 EGPN 281550Z 03012G23KT 330V070 9999 -SHRA FEW030 SCT042 06/00 Q1042
 
EGPH - Edinburgh Airpor, United Kingdom
Distance from station: SSW 74km
Updated: 28/03/2020 21:50
Overcast
Overcast
 Wind from NNE
Wind: NNE 17 km/h
Temperature: 3°C
Wind Chill: -1°C
Dew Point: -3°C
Humidity: 65%
Barometer: 1046 hPa
Clouds: Overcast
Visibility: 10 km
Cloud details: Overcast 1463 m
2020/03/29 04:50 EGPH 290450Z 02009KT 9999 OVC048 03/M03 Q1046
EGPD - Aberdeen/Dyce, United Kingdom
Distance from station: NNE 82km
Updated: 28/03/2020 21:50
Overcast
Overcast
 Wind from NNW
Wind: NNW 15 km/h
Temperature: 2°C
Wind Chill: -2°C
Dew Point: -2°C
Humidity: 75%
Barometer: 1047 hPa
Clouds: Overcast
Visibility: 10 km
Cloud details: Overcast 1280 m
2020/03/29 04:50 EGPD 290450Z AUTO 33008KT 9999 OVC042 02/M02 Q1047 NOSIG